createdAt,value
2022-10-18T00:01:10.043Z,12.73
2022-10-18T00:03:38.823Z,11.77
2022-10-18T00:06:09.423Z,12.20
2022-10-18T00:08:39.140Z,12.13
2022-10-18T00:11:08.218Z,11.98
2022-10-18T00:13:36.069Z,12.68
2022-10-18T00:16:06.620Z,13.40
2022-10-18T00:18:34.994Z,15.20
2022-10-18T00:21:13.375Z,15.38
2022-10-18T00:23:42.085Z,13.88
2022-10-18T00:26:22.770Z,13.75
2022-10-18T00:28:54.077Z,14.87
2022-10-18T00:31:23.425Z,13.02
2022-10-18T00:34:06.509Z,14.15
2022-10-18T00:36:34.988Z,15.95
2022-10-18T00:39:05.369Z,14.77
2022-10-18T00:41:38.329Z,15.05
2022-10-18T00:44:26.866Z,17.25
2022-10-18T00:47:01.815Z,12.85
2022-10-18T00:50:02.288Z,12.68
2022-10-18T00:52:41.170Z,14.13
2022-10-18T00:55:10.732Z,13.88
2022-10-18T00:57:43.631Z,13.00
2022-10-18T01:00:13.140Z,13.30
2022-10-18T01:02:43.050Z,13.90
2022-10-18T01:05:16.606Z,14.90
2022-10-18T01:08:05.308Z,13.35
2022-10-18T01:10:48.255Z,12.18
2022-10-18T01:13:47.125Z,11.48
2022-10-18T01:16:26.991Z,12.25
2022-10-18T01:19:01.181Z,8.45
2022-10-18T01:21:54.222Z,8.80
2022-10-18T01:24:45.966Z,10.00
2022-10-18T01:27:31.247Z,12.05
2022-10-18T01:30:20.879Z,12.68
2022-10-18T01:32:55.040Z,13.18
2022-10-18T01:35:30.320Z,12.45
2022-10-18T01:38:03.908Z,12.35
2022-10-18T01:40:32.985Z,14.02
2022-10-18T01:43:02.922Z,15.30
2022-10-18T01:45:32.140Z,12.68
2022-10-18T01:48:01.140Z,14.05
2022-10-18T01:50:31.953Z,13.32
2022-10-18T01:53:03.403Z,12.45
2022-10-18T01:55:39.545Z,13.55
2022-10-18T01:58:30.350Z,14.15
2022-10-18T02:01:09.193Z,14.13
2022-10-18T02:03:42.777Z,15.32
2022-10-18T02:06:20.589Z,12.80
2022-10-18T02:09:03.964Z,12.93
2022-10-18T02:11:33.561Z,12.90
2022-10-18T02:14:08.837Z,14.25
2022-10-18T02:16:49.544Z,14.77
2022-10-18T02:22:01.549Z,14.50
2022-10-18T02:24:37.403Z,14.38
2022-10-18T02:27:05.448Z,14.32
2022-10-18T02:29:34.703Z,14.95
2022-10-18T02:32:26.141Z,13.55
2022-10-18T02:35:02.580Z,13.98
2022-10-18T02:37:35.594Z,11.55
2022-10-18T02:40:06.324Z,13.93
2022-10-18T02:42:39.934Z,14.50
2022-10-18T02:45:08.454Z,13.00
2022-10-18T02:47:36.420Z,16.77
2022-10-18T02:50:04.567Z,14.63
2022-10-18T02:52:32.846Z,13.45
2022-10-18T02:55:01.628Z,12.60
2022-10-18T02:57:31.328Z,12.00
2022-10-18T02:59:59.955Z,11.82
2022-10-18T03:02:27.903Z,12.20
2022-10-18T03:04:55.849Z,12.60
2022-10-18T03:07:24.307Z,12.23
2022-10-18T03:09:52.339Z,12.40
2022-10-18T03:12:20.317Z,12.00
2022-10-18T03:14:48.523Z,11.45
2022-10-18T03:17:16.505Z,12.43
2022-10-18T03:19:44.195Z,12.37
2022-10-18T03:22:12.542Z,11.52
2022-10-18T03:24:40.200Z,10.40
2022-10-18T03:27:08.162Z,12.02
2022-10-18T03:29:36.242Z,9.02
2022-10-18T03:32:04.229Z,11.32
2022-10-18T03:34:31.973Z,9.40
2022-10-18T03:37:03.375Z,11.55
2022-10-18T03:39:33.850Z,10.15
2022-10-18T03:42:05.272Z,10.13
2022-10-18T03:44:33.175Z,10.00
2022-10-18T03:47:00.995Z,9.70
2022-10-18T03:49:29.289Z,11.75
2022-10-18T03:51:57.206Z,11.27
2022-10-18T03:54:25.011Z,11.25
2022-10-18T03:56:56.359Z,8.45
2022-10-18T03:59:24.196Z,8.68
2022-10-18T04:01:52.111Z,9.85
2022-10-18T04:04:20.583Z,9.82
2022-10-18T04:06:48.420Z,9.45
2022-10-18T04:09:16.474Z,9.85
2022-10-18T04:11:44.748Z,9.52
2022-10-18T04:14:12.467Z,9.30
2022-10-18T04:16:40.283Z,10.10
2022-10-18T04:19:08.624Z,10.63
2022-10-18T04:21:36.976Z,10.75
2022-10-18T04:24:05.126Z,10.38
2022-10-18T04:26:33.378Z,9.65
2022-10-18T04:29:01.257Z,9.63
2022-10-18T04:31:29.184Z,9.80
2022-10-18T04:33:57.254Z,8.45
2022-10-18T04:36:25.158Z,8.75
2022-10-18T04:38:52.974Z,8.05
2022-10-18T04:41:21.250Z,8.70
2022-10-18T04:43:49.262Z,8.95
2022-10-18T04:46:17.129Z,9.63
2022-10-18T04:48:45.415Z,9.90
2022-10-18T04:51:13.324Z,9.95
2022-10-18T04:53:41.149Z,8.25
2022-10-18T04:56:09.462Z,8.27
2022-10-18T04:58:37.244Z,8.18
2022-10-18T05:01:06.949Z,10.05
2022-10-18T05:03:35.432Z,8.82
2022-10-18T05:06:03.671Z,7.75
2022-10-18T05:08:33.231Z,8.50
2022-10-18T05:11:04.856Z,9.07
2022-10-18T05:13:33.510Z,8.98
2022-10-18T05:16:02.818Z,9.60
2022-10-18T05:18:30.895Z,8.02
2022-10-18T05:20:59.034Z,7.72
2022-10-18T05:23:27.231Z,9.10
2022-10-18T05:25:55.352Z,8.35
2022-10-18T05:28:39.297Z,8.65
2022-10-18T05:31:12.021Z,9.63
2022-10-18T05:33:40.512Z,9.05
2022-10-18T05:36:08.801Z,10.88
2022-10-18T05:38:43.482Z,9.13
2022-10-18T05:41:13.040Z,10.50
2022-10-18T05:43:41.490Z,10.02
2022-10-18T05:46:14.522Z,7.50
2022-10-18T05:48:45.055Z,10.52
2022-10-18T05:51:12.863Z,8.80
2022-10-18T05:53:40.557Z,10.73
2022-10-18T05:56:14.839Z,9.55
2022-10-18T05:58:43.340Z,8.70
2022-10-18T06:01:11.583Z,9.15
2022-10-18T06:03:39.896Z,9.05
2022-10-18T06:06:10.281Z,9.68
2022-10-18T06:08:43.050Z,8.55
2022-10-18T06:11:14.832Z,9.35
2022-10-18T06:13:44.699Z,8.20
2022-10-18T06:16:14.448Z,9.02
2022-10-18T06:18:42.669Z,10.40
2022-10-18T06:21:13.319Z,8.63
2022-10-18T06:23:41.535Z,10.90
2022-10-18T06:26:11.851Z,9.05
2022-10-18T06:28:39.785Z,8.90
2022-10-18T06:31:08.108Z,9.02
2022-10-18T06:33:37.430Z,7.78
2022-10-18T06:36:08.843Z,9.63
2022-10-18T06:38:40.124Z,8.18
2022-10-18T06:41:09.242Z,9.55
2022-10-18T06:43:37.705Z,8.55
2022-10-18T06:46:08.382Z,8.85
2022-10-18T06:48:37.050Z,7.30
2022-10-18T06:51:07.120Z,8.77
2022-10-18T06:53:43.907Z,9.10
2022-10-18T06:56:22.204Z,9.60
2022-10-18T06:58:50.176Z,8.70
2022-10-18T07:01:18.827Z,9.13
2022-10-18T07:03:49.047Z,6.97
2022-10-18T07:06:19.022Z,8.57
2022-10-18T07:08:49.157Z,8.75
2022-10-18T07:11:27.940Z,8.43
2022-10-18T07:14:05.105Z,5.90
2022-10-18T07:16:34.171Z,7.05
2022-10-18T07:19:02.828Z,7.55
2022-10-18T07:21:30.762Z,7.30
2022-10-18T07:23:58.575Z,8.13
2022-10-18T07:26:35.049Z,7.22
2022-10-18T07:29:08.476Z,7.53
2022-10-18T07:31:38.873Z,6.87
2022-10-18T07:34:07.974Z,7.40
2022-10-18T07:36:36.111Z,6.15
2022-10-18T07:39:07.123Z,6.40
2022-10-18T07:41:35.009Z,6.97
2022-10-18T07:44:04.564Z,5.60
2022-10-18T07:46:32.836Z,6.32
2022-10-18T07:49:00.701Z,6.93
2022-10-18T07:51:29.100Z,7.45
2022-10-18T07:53:56.919Z,5.20
2022-10-18T07:56:24.715Z,6.10
2022-10-18T07:58:55.935Z,6.87
2022-10-18T08:01:25.180Z,6.32
2022-10-18T08:03:54.021Z,5.75
2022-10-18T08:06:23.501Z,6.62
2022-10-18T08:08:51.333Z,5.85
2022-10-18T08:11:21.953Z,7.22
2022-10-18T08:13:50.009Z,4.82
2022-10-18T08:16:28.894Z,6.18
2022-10-18T08:18:58.711Z,6.28
2022-10-18T08:21:27.216Z,5.55
2022-10-18T08:23:55.397Z,6.22
2022-10-18T08:26:23.988Z,6.60
2022-10-18T08:29:10.310Z,6.90
2022-10-18T08:31:40.643Z,7.15
2022-10-18T08:34:08.426Z,5.62
2022-10-18T08:36:36.268Z,5.85
2022-10-18T08:39:05.219Z,6.30
2022-10-18T08:41:33.119Z,7.20
2022-10-18T08:44:28.001Z,7.82
2022-10-18T08:47:02.505Z,6.78
2022-10-18T08:49:35.246Z,7.55
2022-10-18T08:52:17.376Z,6.35
2022-10-18T08:55:10.343Z,5.28
2022-10-18T08:57:38.661Z,5.62
2022-10-18T09:00:30.545Z,5.80
2022-10-18T09:03:32.235Z,5.80
2022-10-18T09:06:33.419Z,5.53
2022-10-18T09:09:20.484Z,5.15
2022-10-18T09:11:58.039Z,6.37
2022-10-18T09:14:38.824Z,5.50
2022-10-18T09:17:28.781Z,6.65
2022-10-18T09:20:17.252Z,5.25
2022-10-18T09:23:20.508Z,5.87
2022-10-18T09:25:53.262Z,6.10
2022-10-18T09:28:30.882Z,5.25
2022-10-18T09:31:28.429Z,5.45
2022-10-18T09:34:03.350Z,6.10
2022-10-18T09:36:38.197Z,5.68
2022-10-18T09:39:15.895Z,5.35
2022-10-18T09:41:52.796Z,6.45
2022-10-18T09:44:37.004Z,6.93
2022-10-18T09:47:21.745Z,7.62
2022-10-18T09:50:02.135Z,7.30
2022-10-18T09:52:42.899Z,7.53
2022-10-18T09:55:27.918Z,6.55
2022-10-18T09:58:02.937Z,6.50
2022-10-18T10:00:35.487Z,4.65
2022-10-18T10:03:15.044Z,6.30
2022-10-18T10:05:43.788Z,5.47
2022-10-18T10:08:12.299Z,5.57
2022-10-18T10:10:42.074Z,5.45
2022-10-18T10:13:23.246Z,6.37
2022-10-18T10:16:02.497Z,6.25
2022-10-18T10:18:33.864Z,6.10
2022-10-18T10:21:06.189Z,6.78
2022-10-18T10:23:39.441Z,5.53
2022-10-18T10:26:25.932Z,5.90
2022-10-18T10:31:38.757Z,5.60
2022-10-18T10:34:13.268Z,5.20
2022-10-18T10:36:52.846Z,4.25
2022-10-18T10:39:23.534Z,5.25
2022-10-18T10:41:59.084Z,4.20
2022-10-18T10:44:30.958Z,5.37
2022-10-18T10:47:00.090Z,4.82
2022-10-18T10:49:40.946Z,5.15
2022-10-18T10:52:28.653Z,5.37
2022-10-18T10:55:17.022Z,7.03
2022-10-18T10:57:49.742Z,5.60
2022-10-18T11:00:39.059Z,5.80
2022-10-18T11:03:27.997Z,6.45
2022-10-18T11:05:58.175Z,5.90
2022-10-18T11:08:33.171Z,5.97
2022-10-18T11:11:20.684Z,6.53
2022-10-18T11:14:13.767Z,7.93
2022-10-18T11:17:23.042Z,8.77
2022-10-18T11:20:10.064Z,7.10
2022-10-18T11:22:56.496Z,7.68
2022-10-18T11:25:48.770Z,10.02
2022-10-18T11:28:54.888Z,10.43
2022-10-18T11:31:36.208Z,9.00
2022-10-18T11:34:15.110Z,8.10
2022-10-18T11:36:54.990Z,11.73
2022-10-18T11:39:24.434Z,11.50
2022-10-18T11:42:10.705Z,11.35
2022-10-18T11:44:56.586Z,11.70
2022-10-18T11:47:58.789Z,15.15
2022-10-18T11:50:41.140Z,13.90
2022-10-18T11:53:29.283Z,11.12
2022-10-18T11:56:19.113Z,14.25
2022-10-18T11:59:02.345Z,14.00
2022-10-18T12:02:01.868Z,12.70
2022-10-18T12:04:49.123Z,13.80
2022-10-18T12:07:42.372Z,14.90
2022-10-18T12:10:26.225Z,14.18
2022-10-18T12:13:13.389Z,15.60
2022-10-18T12:15:42.019Z,12.60
2022-10-18T12:18:20.325Z,17.80
2022-10-18T12:20:57.207Z,14.07
2022-10-18T12:23:44.955Z,16.77
2022-10-18T12:26:14.438Z,20.27
2022-10-18T12:29:00.614Z,21.25
2022-10-18T12:31:37.214Z,17.83
2022-10-18T12:34:38.534Z,17.95
2022-10-18T12:37:43.746Z,15.45
2022-10-18T12:40:36.279Z,16.42
2022-10-18T12:43:11.290Z,17.58
2022-10-18T12:45:57.457Z,17.00
2022-10-18T12:48:30.572Z,19.25
2022-10-18T12:51:04.408Z,18.27
2022-10-18T12:53:34.135Z,15.98
2022-10-18T12:56:42.091Z,17.77
2022-10-18T12:59:16.428Z,16.42
2022-10-18T13:04:39.078Z,15.80
2022-10-18T13:07:08.486Z,13.48
2022-10-18T13:09:38.944Z,15.15
2022-10-18T13:12:09.911Z,11.00
2022-10-18T13:15:07.346Z,14.70
2022-10-18T13:18:31.261Z,15.00
2022-10-18T13:21:16.218Z,15.07
2022-10-18T13:24:10.589Z,12.43
2022-10-18T13:26:41.483Z,11.73
2022-10-18T13:29:42.999Z,12.27
2022-10-18T13:32:36.649Z,9.60
2022-10-18T13:38:00.219Z,10.07
2022-10-18T14:46:31.831Z,9.13
2022-10-18T14:49:02.119Z,11.48
2022-10-18T14:51:36.009Z,9.52
2022-10-18T14:54:04.225Z,10.20
2022-10-18T14:56:37.692Z,11.55
2022-10-18T14:59:16.637Z,10.40
2022-10-18T15:01:55.101Z,11.07
2022-10-18T15:04:27.831Z,8.07
2022-10-18T15:06:57.159Z,6.47
2022-10-18T15:09:25.994Z,5.93
2022-10-18T15:11:58.012Z,7.03
2022-10-18T15:14:28.721Z,6.07
2022-10-18T15:17:35.743Z,6.05
2022-10-18T15:20:25.410Z,7.22
2022-10-18T15:22:53.799Z,7.65
2022-10-18T15:25:32.117Z,5.78
2022-10-18T15:28:01.800Z,5.45
2022-10-18T15:30:38.835Z,4.87
2022-10-18T15:33:10.110Z,4.57
2022-10-18T15:35:39.209Z,4.15
2022-10-18T15:38:25.951Z,4.10
2022-10-18T15:40:55.034Z,4.68
2022-10-18T15:43:28.619Z,4.18
2022-10-18T15:46:03.223Z,3.00
2022-10-18T15:48:35.973Z,4.10
2022-10-18T15:51:31.728Z,2.87
2022-10-18T15:53:59.459Z,3.37
2022-10-18T15:56:38.515Z,3.60
2022-10-18T15:59:22.667Z,3.12
2022-10-18T16:01:51.180Z,3.45
2022-10-18T16:04:28.393Z,2.70
2022-10-18T16:06:57.262Z,2.55
2022-10-18T16:09:28.061Z,2.50
2022-10-18T16:11:57.451Z,2.58
2022-10-18T16:14:26.606Z,2.37
2022-10-18T16:16:56.832Z,1.35
2022-10-18T16:19:25.083Z,2.50
2022-10-18T16:21:54.650Z,2.47
2022-10-18T16:24:23.279Z,2.58
2022-10-18T16:26:51.652Z,2.20
2022-10-18T16:29:29.071Z,2.87
2022-10-18T16:31:58.479Z,2.85
2022-10-18T16:34:27.487Z,2.72
2022-10-18T16:36:56.039Z,3.03
2022-10-18T16:39:24.713Z,2.53
2022-10-18T16:41:52.878Z,3.17
2022-10-18T16:44:20.714Z,2.37
2022-10-18T16:46:51.159Z,2.20
2022-10-18T16:49:24.902Z,2.17
2022-10-18T16:51:56.396Z,1.52
2022-10-18T16:54:24.200Z,1.52
2022-10-18T16:56:52.166Z,1.30
2022-10-18T16:59:31.424Z,1.67
2022-10-18T17:02:01.819Z,1.85
2022-10-18T17:04:33.508Z,2.00
2022-10-18T17:07:01.327Z,1.52
2022-10-18T17:09:29.283Z,1.65
2022-10-18T17:11:57.631Z,1.80
2022-10-18T17:14:25.580Z,1.90
2022-10-18T17:16:56.086Z,2.10
2022-10-18T17:19:25.881Z,2.10
2022-10-18T17:22:01.609Z,2.72
2022-10-18T17:24:31.324Z,2.35
2022-10-18T17:26:59.145Z,2.30
2022-10-18T17:29:27.110Z,1.50
2022-10-18T17:31:55.393Z,1.77
2022-10-18T17:34:23.303Z,1.60
2022-10-18T17:36:51.221Z,1.90
2022-10-18T17:39:19.662Z,1.20
2022-10-18T17:41:47.456Z,1.25
2022-10-18T17:44:15.338Z,1.40
2022-10-18T17:46:43.550Z,1.90
2022-10-18T17:49:11.352Z,1.42
2022-10-18T17:51:39.219Z,1.83
2022-10-18T17:54:08.226Z,1.20
2022-10-18T17:56:36.213Z,1.42
2022-10-18T17:59:04.038Z,1.40
2022-10-18T18:01:32.293Z,1.65
2022-10-18T18:04:02.636Z,1.50
2022-10-18T18:06:36.667Z,1.48
2022-10-18T18:09:16.380Z,1.48
2022-10-18T18:11:51.823Z,1.50
2022-10-18T18:14:20.403Z,1.62
2022-10-18T18:16:51.238Z,1.70
2022-10-18T18:19:21.644Z,1.48
2022-10-18T18:21:54.204Z,1.45
2022-10-18T18:24:26.177Z,1.50
2022-10-18T18:26:58.002Z,1.05
2022-10-18T18:29:27.686Z,1.10
2022-10-18T18:31:56.019Z,1.12
2022-10-18T18:34:23.971Z,1.98
2022-10-18T18:36:53.213Z,1.98
2022-10-18T18:39:24.753Z,1.35
2022-10-18T18:41:53.585Z,1.45
2022-10-18T18:44:22.488Z,1.20
2022-10-18T18:46:50.407Z,1.20
2022-10-18T18:49:21.343Z,1.30
2022-10-18T18:51:52.498Z,0.73
2022-10-18T18:54:22.294Z,1.15
2022-10-18T18:56:50.797Z,1.17
2022-10-18T18:59:18.723Z,1.40
2022-10-18T19:01:46.857Z,1.30
2022-10-18T19:04:15.424Z,1.00
2022-10-18T19:06:46.967Z,0.80
2022-10-18T19:09:22.448Z,1.20
2022-10-18T19:11:55.569Z,1.20
2022-10-18T19:14:25.703Z,1.15
2022-10-18T19:16:55.346Z,1.35
2022-10-18T19:19:24.878Z,1.15
2022-10-18T19:21:57.911Z,1.60
2022-10-18T19:24:28.029Z,1.90
2022-10-18T19:27:01.530Z,1.85
2022-10-18T19:29:32.075Z,2.03
2022-10-18T19:32:03.130Z,2.37
2022-10-18T19:34:32.727Z,2.05
2022-10-18T19:37:01.278Z,1.50
2022-10-18T19:39:31.565Z,2.00
2022-10-18T19:42:03.533Z,2.65
2022-10-18T19:44:33.034Z,2.72
2022-10-18T19:47:01.358Z,3.17
2022-10-18T19:49:29.393Z,2.70
2022-10-18T19:51:57.590Z,2.55
2022-10-18T19:54:25.813Z,2.00
2022-10-18T19:56:53.696Z,1.92
2022-10-18T19:59:23.168Z,1.60
2022-10-18T20:01:51.480Z,1.80
2022-10-18T20:04:19.780Z,1.50
2022-10-18T20:06:47.896Z,1.83
2022-10-18T20:09:20.801Z,1.62
2022-10-18T20:11:49.382Z,1.98
2022-10-18T20:14:17.198Z,1.77
2022-10-18T20:16:48.280Z,2.03
2022-10-18T20:19:16.493Z,1.40
2022-10-18T20:21:44.426Z,1.40
2022-10-18T20:24:15.643Z,1.20
2022-10-18T20:26:44.039Z,1.58
2022-10-18T20:29:12.042Z,1.67
2022-10-18T20:31:40.130Z,1.08
2022-10-18T20:34:11.528Z,1.62
2022-10-18T20:36:43.312Z,1.35
2022-10-18T20:39:11.600Z,1.70
2022-10-18T20:41:42.518Z,1.12
2022-10-18T20:44:14.308Z,1.27
2022-10-18T20:46:44.255Z,1.40
2022-10-18T20:49:15.129Z,1.23
2022-10-18T20:51:43.423Z,1.20
2022-10-18T20:54:11.949Z,1.90
2022-10-18T20:56:40.287Z,1.55
2022-10-18T20:59:10.201Z,1.42
2022-10-18T21:01:39.466Z,1.75
2022-10-18T21:04:09.360Z,2.33
2022-10-18T21:06:43.023Z,2.80
2022-10-18T21:09:19.636Z,2.00
2022-10-18T21:11:50.454Z,1.45
2022-10-18T21:14:20.476Z,1.62
2022-10-18T21:16:49.731Z,1.65
2022-10-18T21:19:22.367Z,1.65
2022-10-18T21:24:22.404Z,2.22
2022-10-18T21:26:53.700Z,1.40
2022-10-18T21:29:27.424Z,1.40
2022-10-18T21:31:58.366Z,1.17
2022-10-18T21:34:26.863Z,1.40
2022-10-18T21:36:55.280Z,1.45
2022-10-18T21:41:57.919Z,1.12
2022-10-18T21:44:25.833Z,1.70
2022-10-18T21:46:55.273Z,1.37
2022-10-18T21:49:25.294Z,1.40
2022-10-18T21:51:56.058Z,1.58
2022-10-18T21:54:24.380Z,1.45
2022-10-18T21:56:52.283Z,1.70
2022-10-18T21:59:20.285Z,1.70
2022-10-18T22:01:48.452Z,1.60
2022-10-18T22:04:22.515Z,1.73
2022-10-18T22:06:51.099Z,1.87
2022-10-18T22:09:21.386Z,1.83
2022-10-18T22:11:52.430Z,1.80
2022-10-18T22:14:21.365Z,1.90
2022-10-18T22:16:49.309Z,2.10
2022-10-18T22:19:17.326Z,1.95
2022-10-18T22:21:48.080Z,1.73
2022-10-18T22:24:15.941Z,1.73
2022-10-18T22:26:45.276Z,1.70
2022-10-18T22:29:16.785Z,1.50
2022-10-18T22:31:54.660Z,1.95
2022-10-18T22:34:29.114Z,2.20
2022-10-18T22:36:57.047Z,1.90
2022-10-18T22:39:28.086Z,2.05
2022-10-18T22:41:57.554Z,1.67
2022-10-18T22:44:25.860Z,1.70
2022-10-18T22:46:53.751Z,2.00
2022-10-18T22:49:21.574Z,1.90
2022-10-18T22:51:49.844Z,1.87
2022-10-18T22:54:17.936Z,2.55
2022-10-18T22:56:45.630Z,2.03
2022-10-18T22:59:13.994Z,2.40
2022-10-18T23:01:41.853Z,2.28
2022-10-18T23:04:10.827Z,2.20
2022-10-18T23:06:40.949Z,1.80
2022-10-18T23:09:11.422Z,2.03
2022-10-18T23:11:42.660Z,1.83
2022-10-18T23:14:10.840Z,2.03
2022-10-18T23:16:39.099Z,2.45
2022-10-18T23:19:07.030Z,1.92
2022-10-18T23:21:35.241Z,1.60
2022-10-18T23:24:03.759Z,1.70
2022-10-18T23:26:32.212Z,2.12
2022-10-18T23:29:00.478Z,2.15
2022-10-18T23:31:31.360Z,1.87
2022-10-18T23:34:01.718Z,2.35
2022-10-18T23:36:31.216Z,2.10
2022-10-18T23:38:59.391Z,1.55
2022-10-18T23:41:27.322Z,2.25
2022-10-18T23:43:55.731Z,1.90
2022-10-18T23:46:23.999Z,1.40
2022-10-18T23:48:55.053Z,1.85
2022-10-18T23:51:23.345Z,1.77
2022-10-18T23:53:51.115Z,1.27
2022-10-18T23:56:18.851Z,1.65
2022-10-18T23:58:47.084Z,1.67
